Time;durP1;ratioP1;P1;durP2;ratioP2;P2;SDS_P1;SDS_P2;PMS_P1;PMS_P2;Temp;Humidity;BMP_temperature;BMP_pressure;BME280_temperature;BME280_humidity;BME280_pressure;Samples;Min_cycle;Max_cycle;Signal;HPM_P1;HPM_P2
2022/08/01 00:00:36;;;;;;;3.45;2.90;;;23.80;55.60;;;24.02;72.31;100449.47;5014498;28;20050;-82
2022/08/01 00:03:04;;;;;;;4.03;2.90;;;23.80;55.70;;;23.96;73.93;100440.06;5014974;28;20052;-82
2022/08/01 00:05:31;;;;;;;3.08;2.78;;;23.80;55.90;;;23.69;77.40;100437.75;5014631;28;20045;-81
2022/08/01 00:07:59;;;;;;;3.65;2.92;;;23.80;56.20;;;23.89;74.98;100454.97;5015453;28;20045;-82
2022/08/01 00:10:27;;;;;;;2.70;2.40;;;23.60;56.00;;;23.93;74.72;100456.44;5031522;28;20041;-82
2022/08/01 00:12:54;;;;;;;3.88;3.22;;;23.70;56.10;;;23.92;75.38;100454.72;5031962;28;20132;-82
2022/08/01 00:15:21;;;;;;;3.25;2.30;;;23.70;56.40;;;23.99;74.07;100458.66;5031659;28;20056;-80
2022/08/01 00:17:48;;;;;;;3.33;2.70;;;23.70;56.40;;;23.82;79.20;100461.81;5032806;28;20061;-82
2022/08/01 00:20:15;;;;;;;3.13;2.83;;;23.70;57.00;;;23.73;80.15;100469.63;5032673;28;20054;-81
2022/08/01 00:22:42;;;;;;;3.25;2.72;;;23.70;57.00;;;23.85;78.81;100461.56;5032665;28;20132;-82
2022/08/01 00:25:09;;;;;;;3.75;2.65;;;23.60;56.80;;;23.88;76.11;100459.50;5035502;28;20139;-80
2022/08/01 00:27:36;;;;;;;4.80;3.25;;;23.60;56.50;;;23.86;79.26;100449.84;5036589;28;20047;-82
2022/08/01 00:30:05;;;;;;;4.25;3.05;;;23.60;57.20;;;23.89;77.95;100461.22;5037031;28;20523;-81
2022/08/01 00:32:42;;;;;;;3.83;2.60;;;23.60;57.10;;;23.87;77.71;100454.25;5018812;28;20053;-81
2022/08/01 00:35:10;;;;;;;6.15;3.30;;;23.60;57.10;;;23.86;79.66;100464.13;5032670;28;20045;-81
2022/08/01 00:37:37;;;;;;;3.50;2.72;;;23.60;57.50;;;23.80;80.94;100470.00;5031993;28;20068;-81
2022/08/01 00:40:05;;;;;;;2.65;2.45;;;23.60;57.50;;;23.82;82.03;100461.81;5016073;28;20059;-80
2022/08/01 00:42:33;;;;;;;2.72;2.47;;;23.60;57.90;;;23.82;82.00;100465.34;5049322;28;20037;-81
2022/08/01 00:45:00;;;;;;;5.03;2.83;;;23.60;58.00;;;23.70;83.37;100456.44;5016331;28;20055;-80
2022/08/01 00:47:27;;;;;;;4.03;2.75;;;23.60;58.30;;;23.81;81.33;100471.69;5033250;28;20044;-80
2022/08/01 00:49:54;;;;;;;5.40;2.75;;;23.60;58.10;;;23.68;83.74;100466.44;5032059;28;20057;-80
2022/08/01 00:52:21;;;;;;;3.63;3.00;;;23.50;58.30;;;23.48;84.90;100470.66;5032531;28;20064;-81
2022/08/01 00:54:48;;;;;;;2.83;2.58;;;23.50;58.40;;;23.26;87.93;100466.06;5015447;28;20064;-80
2022/08/01 00:57:15;;;;;;;3.67;3.13;;;23.40;58.70;;;23.17;89.62;100468.44;5032518;28;20529;-81
2022/08/01 00:59:48;;;;;;;5.32;3.40;;;23.20;59.00;;;22.93;93.84;100472.03;5033248;28;20049;-80
2022/08/01 01:02:16;;;;;;;4.97;2.80;;;23.10;59.60;;;22.94;93.58;100484.47;5032315;28;20048;-80
2022/08/01 01:04:43;;;;;;;6.20;3.20;;;23.00;59.80;;;22.85;96.43;100482.47;5015779;28;20057;-80
2022/08/01 01:07:32;;;;;;;4.25;2.65;;;22.90;60.50;;;22.78;97.83;100474.00;5032208;28;20430;-80
2022/08/01 01:10:32;;;;;;;3.35;2.78;;;22.80;61.10;;;22.73;96.97;100486.91;5048543;28;20464;-80
2022/08/01 01:13:10;;;;;;;3.05;2.70;;;22.80;61.40;;;22.75;97.15;100487.66;5033404;28;20498;-80
2022/08/01 01:16:04;;;;;;;3.13;2.75;;;22.70;61.60;;;22.89;98.70;100483.97;5016307;28;20045;-81
2022/08/01 01:18:44;;;;;;;6.03;3.40;;;22.70;62.40;;;23.00;97.45;100483.16;5034059;28;20047;-80
2022/08/01 01:21:17;;;;;;;3.30;3.03;;;22.70;62.80;;;23.09;97.70;100493.19;5016863;28;20045;-80
2022/08/01 01:24:40;;;;;;;4.82;3.13;;;22.80;63.20;;;23.23;96.69;100496.66;5052483;28;20110;-79
2022/08/01 01:27:47;;;;;;;3.95;2.80;;;22.80;63.20;;;23.15;97.97;100497.22;5051723;28;20127;-80
2022/08/01 01:30:14;;;;;;;3.83;2.75;;;22.90;63.60;;;23.12;96.83;100484.06;5051310;28;20156;-79
2022/08/01 01:32:49;;;;;;;3.53;2.63;;;22.90;63.40;;;23.12;95.71;100481.38;5033084;28;20049;-80
2022/08/01 01:35:32;;;;;;;3.95;2.95;;;22.90;63.10;;;;;;5017295;28;20084;-80
2022/08/01 01:38:14;;;;;;;3.03;2.60;;;22.90;63.30;;;22.91;97.40;100490.06;5033104;28;20059;-79
2022/08/01 01:40:43;;;;;;;3.45;3.13;;;22.90;63.60;;;22.86;97.58;100486.00;5031734;28;20049;-80
2022/08/01 01:43:12;;;;;;;3.88;3.10;;;22.80;63.70;;;22.86;97.86;100488.69;5015507;28;20037;-80
2022/08/01 01:45:40;;;;;;;5.28;3.28;;;22.70;63.80;;;22.83;97.69;100505.88;5031405;28;20046;-79
2022/08/01 01:48:12;;;;;;;4.13;3.17;;;22.60;63.90;;;22.68;99.23;100499.81;5030805;28;20064;-81
2022/08/01 01:50:41;;;;;;;4.70;2.90;;;22.50;64.30;;;22.59;99.90;100500.47;5027870;28;20037;-79
2022/08/01 01:53:10;;;;;;;3.17;2.88;;;22.60;64.50;;;22.55;98.99;100505.19;5028116;28;20421;-79
2022/08/01 01:55:44;;;;;;;3.88;2.65;;;22.60;64.60;;;22.51;100.00;100515.31;5029065;28;20122;-79
2022/08/01 01:58:17;;;;;;;4.10;2.85;;;22.50;65.30;;;22.42;100.00;100512.41;5030613;28;20053;-79
2022/08/01 02:00:46;;;;;;;6.88;3.00;;;22.50;65.80;;;22.39;100.00;100508.94;5012249;28;20095;-80
2022/08/01 02:03:19;;;;;;;4.38;3.00;;;22.40;65.90;;;22.32;100.00;100510.38;5029373;28;20041;-79
2022/08/01 02:05:48;;;;;;;4.20;2.75;;;22.30;66.40;;;22.43;100.00;100500.72;5013196;28;20410;-79
2022/08/01 02:08:17;;;;;;;3.60;3.30;;;22.30;66.70;;;22.40;100.00;100504.47;4996426;28;20085;-79
2022/08/01 02:11:17;;;;;;;3.50;3.20;;;22.20;66.50;;;22.31;100.00;100494.38;5024076;28;20409;-79
2022/08/01 02:13:36;;;;;;;3.70;3.15;;;22.30;67.50;;;22.27;100.00;100498.25;5029721;28;20132;-79
2022/08/01 02:16:04;;;;;;;4.05;3.70;;;22.20;67.90;;;22.30;100.00;100496.22;5011837;28;20124;-79
2022/08/01 02:18:33;;;;;;;3.50;3.08;;;22.20;68.10;;;22.20;100.00;100504.06;5027448;28;20049;-79
2022/08/01 02:21:03;;;;;;;4.22;2.70;;;22.10;68.70;;;22.18;100.00;100502.44;5010328;28;20738;-79
2022/08/01 02:23:33;;;;;;;4.70;3.20;;;22.10;69.10;;;22.16;100.00;100507.91;5027168;28;20038;-79
2022/08/01 02:26:07;;;;;;;5.38;3.08;;;22.20;69.70;;;22.15;100.00;100497.31;5021460;28;20056;-79
2022/08/01 02:29:02;;;;;;;4.53;3.05;;;22.00;70.20;;;22.16;100.00;100513.28;5015473;28;20502;-79
2022/08/01 02:31:35;;;;;;;3.83;3.28;;;22.00;70.80;;;22.10;100.00;100506.56;5047005;28;20113;-79
2022/08/01 02:34:09;;;;;;;5.07;3.25;;;22.00;71.50;;;22.03;100.00;100504.41;5014530;28;20049;-79
2022/08/01 02:36:38;;;;;;;4.00;3.17;;;22.00;71.80;;;22.07;100.00;100513.94;5030134;28;20520;-79
2022/08/01 02:39:11;;;;;;;4.28;3.15;;;21.90;71.90;;;21.96;100.00;100501.31;5012985;28;20513;-79
2022/08/01 02:41:49;;;;;;;3.85;2.92;;;21.90;72.70;;;21.86;100.00;100502.91;5030592;28;20048;-79
2022/08/01 02:44:28;;;;;;;3.20;2.80;;;21.90;73.20;;;21.91;100.00;100509.66;5014278;28;20057;-79
2022/08/01 02:47:02;;;;;;;4.38;3.00;;;21.80;74.10;;;21.84;100.00;100503.00;5046855;28;20045;-79
2022/08/01 02:49:43;;;;;;;4.82;3.03;;;21.80;74.80;;;21.90;100.00;100518.66;5046671;28;20045;-79
2022/08/01 02:52:15;;;;;;;4.60;3.33;;;21.80;75.30;;;21.89;100.00;100498.19;5046830;28;20095;-79
2022/08/01 02:54:46;;;;;;;4.38;3.03;;;21.80;76.00;;;21.95;100.00;100505.78;5046411;28;20490;-79
2022/08/01 02:57:14;;;;;;;3.85;2.72;;;21.80;75.80;;;21.86;100.00;100495.75;5030475;28;20454;-79
2022/08/01 02:59:45;;;;;;;3.08;2.80;;;21.80;77.40;;;21.75;100.00;100511.69;5029591;28;20096;-79
2022/08/01 03:02:16;;;;;;;5.75;3.53;;;21.80;77.80;;;21.75;100.00;100501.81;5049848;28;20050;-79
2022/08/01 03:04:44;;;;;;;4.30;3.13;;;20.80;77.10;;;21.72;100.00;100504.72;5049848;28;20494;-79
2022/08/01 03:07:13;;;;;;;4.35;3.17;;;21.70;79.10;;;21.74;100.00;100507.28;5049797;28;20409;-79
2022/08/01 03:09:45;;;;;;;4.32;3.08;;;21.60;79.70;;;21.75;100.00;100500.97;5049417;28;20052;-79
2022/08/01 03:12:29;;;;;;;3.30;2.97;;;21.60;81.00;;;21.65;100.00;100500.72;5033092;28;20045;-79
2022/08/01 03:14:59;;;;;;;5.05;3.05;;;21.60;81.90;;;21.52;100.00;100509.59;5033103;28;20045;-79
2022/08/01 03:17:28;;;;;;;;;;;21.50;82.80;;;21.53;100.00;100508.63;5033360;28;20520;-79
2022/08/01 03:19:58;;;;;;;5.35;3.53;;;21.50;83.10;;;21.57;100.00;100506.59;5016519;28;19932;-79
2022/08/01 03:22:29;;;;;;;3.63;3.28;;;21.50;83.60;;;21.56;100.00;100501.34;5049360;28;20057;-79
2022/08/01 03:24:59;;;;;;;3.20;2.90;;;21.40;83.00;;;21.56;100.00;100512.06;5032769;28;20049;-79
2022/08/01 03:27:26;;;;;;;6.10;3.42;;;21.50;83.60;;;21.42;100.00;100505.81;5049560;28;20057;-79
2022/08/01 03:29:56;;;;;;;3.65;3.30;;;21.70;84.20;;;21.27;100.00;100506.84;5032746;28;20071;-79
2022/08/01 03:32:27;;;;;;;7.70;3.85;;;21.30;84.00;;;21.16;100.00;100503.09;5049766;28;20054;-78
2022/08/01 03:34:54;;;;;;;4.60;3.38;;;21.20;84.90;;;21.23;100.00;100508.88;5032646;28;20144;-79
2022/08/01 03:37:40;;;;;;;5.20;3.28;;;21.30;84.90;;;21.00;100.00;100505.91;5049657;28;20042;-81
2022/08/01 03:40:44;;;;;;;4.40;3.38;;;21.10;86.30;;;21.00;100.00;100503.22;5046647;28;20053;-80
2022/08/01 03:43:26;;;;;;;4.25;3.38;;;21.00;86.70;;;21.02;100.00;100512.00;5031669;28;20144;-79
2022/08/01 03:45:56;;;;;;;3.42;2.92;;;21.00;86.80;;;20.97;100.00;100519.50;5033053;28;20056;-81
2022/08/01 03:48:29;;;;;;;4.15;3.55;;;21.00;87.00;;;20.83;100.00;100518.56;5049533;28;20063;-81
2022/08/01 03:50:59;;;;;;;4.75;3.28;;;20.90;87.70;;;20.69;100.00;100516.75;5032648;28;20108;-80
2022/08/01 03:53:31;;;;;;;5.13;3.35;;;20.90;88.20;;;20.83;100.00;100526.59;5032936;28;20103;-79
2022/08/01 03:56:01;;;;;;;6.50;3.70;;;20.80;88.30;;;20.78;100.00;100515.31;5033038;28;20136;-80
2022/08/01 03:58:30;;;;;;;4.32;3.78;;;21.20;88.80;;;20.74;100.00;100521.78;5032929;28;20060;-80
2022/08/01 04:00:58;;;;;;;5.50;3.67;;;20.80;89.00;;;20.66;100.00;100513.44;5033221;28;20071;-80
2022/08/01 04:03:26;;;;;;;5.55;3.58;;;20.80;88.90;;;20.83;100.00;100523.03;5033339;28;20052;-81
2022/08/01 04:05:53;;;;;;;4.43;3.60;;;20.70;89.10;;;20.74;100.00;100531.66;5049869;28;20417;-80
2022/08/01 04:08:20;;;;;;;5.13;3.60;;;20.80;89.90;;;20.65;100.00;100522.41;5033308;28;20054;-79
2022/08/01 04:10:55;;;;;;;3.42;3.00;;;20.70;90.00;;;20.59;100.00;100525.44;5032661;28;20056;-81
2022/08/01 04:13:22;;;;;;;5.30;3.50;;;20.70;90.30;;;20.47;100.00;100519.09;5017384;28;20049;-82
2022/08/01 04:15:49;;;;;;;4.18;3.40;;;20.60;90.30;;;20.49;100.00;100522.50;5017402;28;20131;-81
2022/08/01 04:18:16;;;;;;;3.67;3.35;;;20.60;90.60;;;20.62;100.00;100523.44;5017178;28;20068;-81
2022/08/01 04:20:43;;;;;;;3.58;3.28;;;20.60;90.30;;;20.66;100.00;100535.66;5049592;28;20056;-82
2022/08/01 04:23:11;;;;;;;3.90;3.50;;;20.50;90.70;;;20.61;100.00;100528.91;5033348;28;20073;-80
2022/08/01 04:25:42;;;;;;;5.47;3.90;;;20.60;90.60;;;20.54;100.00;100526.59;5029969;28;20045;-82
2022/08/01 04:28:16;;;;;;;3.88;3.47;;;21.50;91.00;;;20.81;100.00;100538.34;5031570;28;20049;-80
2022/08/01 04:30:46;;;;;;;6.47;3.35;;;20.60;91.00;;;20.84;100.00;100540.84;5016928;28;20116;-80
2022/08/01 04:33:16;;;;;;;;;;;20.70;91.40;;;20.95;100.00;100545.47;5028675;28;20422;-80
2022/08/01 04:35:48;;;;;;;5.35;2.83;;;20.70;91.80;;;21.00;100.00;100551.38;5020573;28;19928;-80
2022/08/01 04:38:36;;;;;;;6.80;3.50;;;20.80;92.00;;;21.09;100.00;100545.44;5019950;28;20076;-80
2022/08/01 04:41:06;;;;;;;5.45;3.28;;;20.90;92.10;;;21.15;100.00;100549.53;5017544;28;20049;-80
2022/08/01 04:43:38;;;;;;;4.82;3.25;;;20.90;92.10;;;21.15;100.00;100544.19;5017706;28;20048;-80
2022/08/01 04:46:07;;;;;;;3.38;2.88;;;21.00;92.20;;;20.99;100.00;100548.78;5019464;28;20510;-80
2022/08/01 04:48:39;;;;;;;3.20;2.72;;;21.00;92.30;;;20.97;100.00;100549.75;5020475;28;20045;-78
2022/08/01 04:51:15;;;;;;;3.58;3.13;;;21.00;92.60;;;20.96;100.00;100557.88;5012939;28;20050;-75
2022/08/01 04:53:43;;;;;;;6.15;3.47;;;21.30;92.80;;;21.08;100.00;100545.53;5012876;28;20053;-77
2022/08/01 04:56:12;;;;;;;4.15;2.78;;;21.00;92.80;;;21.15;100.00;100552.19;5012140;28;20060;-77
2022/08/01 04:58:43;;;;;;;3.93;3.07;;;21.00;92.90;;;21.16;100.00;100559.28;5030633;28;20441;-77
2022/08/01 05:01:11;;;;;;;5.03;3.85;;;21.10;92.90;;;21.20;100.00;100558.09;5014002;28;20276;-77
2022/08/01 05:03:38;;;;;;;4.85;3.13;;;21.10;93.00;;;21.23;100.00;100557.06;5030631;28;20041;-77
2022/08/01 05:06:06;;;;;;;4.97;3.50;;;21.10;93.00;;;21.25;100.00;100561.31;5045435;28;20065;-77
2022/08/01 05:08:33;;;;;;;3.45;3.03;;;21.10;92.80;;;21.28;100.00;100551.38;5029976;28;20513;-77
2022/08/01 05:11:00;;;;;;;3.20;2.83;;;21.10;93.00;;;21.35;100.00;100556.22;5027692;28;20049;-77
2022/08/01 05:13:28;;;;;;;4.50;3.45;;;21.20;93.00;;;21.35;100.00;100550.03;5013294;28;20045;-77
2022/08/01 05:15:55;;;;;;;4.43;2.80;;;21.20;93.00;;;21.39;100.00;100548.84;5028418;28;20037;-77
2022/08/01 05:18:22;;;;;;;4.65;3.13;;;21.20;92.90;;;21.35;100.00;100555.38;5034814;28;20033;-77
2022/08/01 05:20:55;;;;;;;4.55;3.35;;;21.30;93.10;;;21.49;100.00;100549.94;5013233;28;20759;-77
2022/08/01 05:23:22;;;;;;;5.05;3.35;;;21.30;93.00;;;21.49;100.00;100552.63;5012764;28;20048;-78
2022/08/01 05:26:13;;;;;;;6.28;3.10;;;21.40;93.10;;;21.62;100.00;100549.09;5029389;28;20042;-77
2022/08/01 05:28:42;;;;;;;4.88;3.40;;;21.40;93.00;;;21.75;100.00;100554.53;5013329;28;20458;-78
2022/08/01 05:31:09;;;;;;;3.42;2.67;;;21.50;92.80;;;21.64;100.00;100553.41;5029162;28;20045;-78
2022/08/01 05:33:36;;;;;;;4.85;3.08;;;21.50;93.10;;;21.76;100.00;100557.09;5012266;28;20056;-78
2022/08/01 05:36:03;;;;;;;3.17;2.50;;;21.60;93.00;;;21.77;100.00;100548.09;5028787;28;20049;-78
2022/08/01 05:38:30;;;;;;;2.92;2.72;;;21.60;92.90;;;21.94;100.00;100548.78;5012649;28;20168;-78
2022/08/01 05:40:57;;;;;;;3.97;2.88;;;21.60;92.70;;;21.84;100.00;100545.00;5026220;28;20045;-78
2022/08/01 05:43:25;;;;;;;6.53;3.00;;;21.70;92.90;;;21.90;100.00;100544.56;5045372;28;20052;-78
2022/08/01 05:45:55;;;;;;;;;;;21.70;92.90;;;21.98;100.00;100552.94;5045527;28;20057;-77
2022/08/01 05:48:24;;;;;;;4.77;2.50;;;21.70;92.90;;;21.99;100.00;100543.94;5029029;28;19921;-78
2022/08/01 05:50:51;;;;;;;5.35;2.85;;;21.80;92.90;;;22.10;100.00;100546.75;5028564;28;20041;-77
2022/08/01 05:53:24;;;;;;;4.25;2.60;;;21.80;92.90;;;22.08;100.00;100550.47;5029810;28;20064;-78
2022/08/01 05:55:51;;;;;;;4.18;2.90;;;21.90;92.80;;;22.04;100.00;100549.00;5030416;28;20398;-78
2022/08/01 05:58:18;;;;;;;3.35;2.70;;;22.00;92.70;;;22.10;100.00;100554.78;5029081;28;20526;-78
2022/08/01 06:00:45;;;;;;;4.97;2.58;;;22.00;92.70;;;22.24;100.00;100550.25;5045934;28;20581;-76
2022/08/01 06:03:14;;;;;;;4.47;2.47;;;22.00;92.60;;;22.37;100.00;100551.09;5028342;28;20037;-76
2022/08/01 06:05:41;;;;;;;2.63;2.00;;;22.10;92.60;;;22.51;100.00;100552.84;5030464;28;20426;-77
2022/08/01 06:08:08;;;;;;;6.10;2.90;;;22.20;92.40;;;22.65;100.00;100561.72;5029496;28;20068;-78
2022/08/01 06:10:35;;;;;;;4.07;2.40;;;22.30;92.40;;;22.75;100.00;100559.22;5032753;28;20052;-79
2022/08/01 06:13:02;;;;;;;3.95;2.42;;;22.30;92.20;;;22.85;100.00;100560.25;5019402;28;20136;-78
2022/08/01 06:15:32;;;;;;;4.25;2.55;;;22.50;92.10;;;22.97;100.00;100554.97;5017812;28;20156;-78
2022/08/01 06:17:59;;;;;;;4.15;2.70;;;22.60;91.80;;;23.01;100.00;100560.00;5016920;28;20048;-78
2022/08/01 06:20:26;;;;;;;5.25;2.53;;;22.70;91.70;;;23.03;100.00;100560.72;5016708;28;20502;-78
2022/08/01 06:22:54;;;;;;;4.43;2.20;;;22.80;91.70;;;23.22;100.00;100552.19;5020700;28;20056;-78
2022/08/01 06:25:22;;;;;;;3.83;2.38;;;22.90;91.30;;;23.30;100.00;100556.13;5015650;28;20461;-79
2022/08/01 06:27:49;;;;;;;2.85;2.00;;;22.90;91.20;;;23.31;100.00;100553.34;5016017;28;20046;-77
2022/08/01 06:30:16;;;;;;;2.55;1.30;;;23.10;90.90;;;23.41;100.00;100572.31;5016415;28;20055;-78
2022/08/01 06:32:43;;;;;;;3.80;1.83;;;23.10;90.50;;;23.64;100.00;100562.50;5032579;28;20116;-78
2022/08/01 06:35:11;;;;;;;4.70;1.58;;;23.20;90.40;;;23.67;100.00;100557.88;5014336;28;20057;-79
2022/08/01 06:37:38;;;;;;;3.67;1.67;;;23.30;90.30;;;23.64;100.00;100564.31;5012544;28;20076;-78
2022/08/01 06:40:09;;;;;;;2.03;1.65;;;23.30;90.50;;;23.78;100.00;100561.44;5022561;28;20049;-79
2022/08/01 06:42:43;;;;;;;4.15;1.67;;;23.40;90.20;;;23.85;100.00;100559.13;5051703;28;20067;-78
2022/08/01 06:45:13;;;;;;;2.22;1.63;;;23.40;90.00;;;24.00;100.00;100551.72;5035566;28;20056;-80
2022/08/01 06:47:41;;;;;;;3.47;1.58;;;23.60;89.80;;;24.07;100.00;100554.81;5034991;28;20041;-79
2022/08/01 06:50:09;;;;;;;2.90;1.45;;;23.70;89.50;;;24.07;100.00;100552.13;5047804;28;20490;-78
2022/08/01 06:52:37;;;;;;;4.00;2.03;;;23.70;89.40;;;24.14;100.00;100560.56;4999726;28;20038;-79
2022/08/01 06:55:05;;;;;;;1.85;1.40;;;23.80;89.60;;;24.17;100.00;100560.31;5015043;28;20042;-78
2022/08/01 06:57:32;;;;;;;2.55;1.40;;;23.80;89.40;;;24.07;100.00;100562.88;5047873;28;20045;-79
2022/08/01 07:00:11;;;;;;;1.60;1.50;;;23.80;89.50;;;24.01;100.00;100572.25;5031897;28;20053;-79
2022/08/01 07:02:38;;;;;;;1.85;1.25;;;23.90;89.00;;;24.19;100.00;100572.66;5015949;28;20065;-79
2022/08/01 07:05:05;;;;;;;1.88;1.40;;;23.80;89.20;;;24.41;100.00;100575.47;5046955;28;20141;-77
2022/08/01 07:07:32;;;;;;;2.53;1.40;;;23.90;88.80;;;24.39;100.00;100577.44;4994120;28;20042;-76
2022/08/01 07:09:59;;;;;;;1.98;1.52;;;24.00;89.00;;;24.39;100.00;100580.13;5009623;28;20064;-76
2022/08/01 07:12:26;;;;;;;1.77;1.40;;;24.10;88.90;;;24.41;100.00;100573.66;5026311;28;20132;-76
2022/08/01 07:14:53;;;;;;;2.78;1.60;;;24.10;88.50;;;24.46;100.00;100570.59;5026239;28;20410;-75
2022/08/01 07:17:20;;;;;;;4.38;1.70;;;24.10;88.80;;;24.50;100.00;100575.59;5026290;28;20391;-76
2022/08/01 07:19:48;;;;;;;3.65;2.25;;;24.10;88.90;;;24.44;100.00;100577.94;5027644;28;20041;-79
2022/08/01 07:22:16;;;;;;;1.65;1.38;;;24.10;88.70;;;24.59;100.00;100583.91;5010112;28;20046;-79
2022/08/01 07:24:49;;;;;;;2.83;1.77;;;24.20;88.90;;;24.62;100.00;100578.28;4995416;28;20073;-79
2022/08/01 07:27:20;;;;;;;2.78;1.50;;;24.30;89.10;;;24.60;100.00;100570.34;5026358;28;20053;-80
2022/08/01 07:29:52;;;;;;;2.10;1.60;;;24.30;89.10;;;24.62;100.00;100563.00;5010331;28;20050;-78
2022/08/01 07:32:19;;;;;;;2.67;1.50;;;24.30;88.90;;;24.67;100.00;100565.34;5010149;28;20060;-79
2022/08/01 07:34:46;;;;;;;1.50;1.33;;;24.40;88.80;;;24.75;100.00;100572.78;5025772;28;20045;-79
2022/08/01 07:37:14;;;;;;;4.40;1.80;;;24.40;88.50;;;24.89;100.00;100559.06;5009391;28;20044;-76
2022/08/01 07:39:40;;;;;;;3.63;1.33;;;24.40;88.30;;;24.93;100.00;100562.38;5009227;28;20045;-76
2022/08/01 07:42:07;;;;;;;2.17;1.52;;;24.60;87.90;;;24.90;100.00;100555.44;5009859;28;20387;-76
2022/08/01 07:44:36;;;;;;;3.15;1.70;;;24.60;87.80;;;24.99;100.00;100558.31;5009385;28;20049;-76
2022/08/01 07:47:04;;;;;;;4.43;1.60;;;24.70;87.90;;;24.99;100.00;100558.31;5027739;28;20045;-76
2022/08/01 07:49:31;;;;;;;5.22;1.77;;;24.70;87.80;;;24.99;100.00;100559.19;5029333;28;20231;-76
2022/08/01 07:52:05;;;;;;;1.70;1.50;;;24.70;87.50;;;25.03;100.00;100559.78;5014473;28;20638;-78
2022/08/01 07:54:32;;;;;;;1.85;1.40;;;24.80;87.40;;;25.11;100.00;100549.25;4996481;28;20053;-76
2022/08/01 07:57:02;;;;;;;2.22;1.40;;;24.80;87.30;;;25.17;100.00;100550.56;5029166;28;20041;-77
2022/08/01 07:59:29;;;;;;;2.28;1.40;;;24.80;86.80;;;25.37;100.00;100551.59;4996740;28;20758;-77
2022/08/01 08:01:57;;;;;;;1.40;1.20;;;24.90;86.70;;;25.27;100.00;100556.03;5013142;28;20041;-80
2022/08/01 08:04:24;;;;;;;2.88;1.25;;;24.70;85.70;;;25.36;100.00;100555.25;5029649;28;20044;-81
2022/08/01 08:06:53;;;;;;;2.65;1.48;;;24.90;85.80;;;25.45;100.00;100548.25;5013508;28;20078;-79
2022/08/01 08:09:20;;;;;;;3.28;1.73;;;25.10;86.60;;;25.42;100.00;100552.06;5029273;28;20140;-79
2022/08/01 08:11:47;;;;;;;3.08;1.42;;;25.10;86.80;;;25.54;100.00;100546.66;5016006;28;20048;-77
2022/08/01 08:14:18;;;;;;;1.88;1.45;;;25.10;86.60;;;25.61;99.05;100547.84;5052036;28;20151;-78
2022/08/01 08:16:46;;;;;;;2.17;1.30;;;25.30;85.40;;;25.52;100.00;100538.69;5034942;28;20041;-77
2022/08/01 08:19:13;;;;;;;4.57;1.30;;;25.30;85.40;;;25.49;100.00;100549.75;5017166;28;20698;-77
2022/08/01 08:21:40;;;;;;;1.58;1.20;;;25.20;85.40;;;25.57;99.52;100552.63;5045541;28;20128;-77
2022/08/01 08:24:22;;;;;;;1.88;1.40;;;25.30;85.30;;;25.55;98.51;100548.38;5012506;28;20490;-77
2022/08/01 08:27:03;;;;;;;4.40;1.65;;;25.20;84.90;;;25.59;98.94;100542.56;5003768;28;20045;-77
2022/08/01 08:29:32;;;;;;;3.60;1.70;;;25.70;85.50;;;25.63;98.51;100544.03;5032210;28;20140;-78
2022/08/01 08:32:00;;;;;;;2.77;1.10;;;25.30;84.90;;;25.62;93.06;100545.03;5016685;28;20518;-78
2022/08/01 08:34:28;;;;;;;1.77;1.00;;;25.40;83.50;;;25.73;95.02;100559.41;5017296;28;20049;-78
2022/08/01 08:36:57;;;;;;;2.05;1.30;;;25.30;83.90;;;25.92;93.83;100553.28;5032762;28;20047;-78
2022/08/01 08:39:26;;;;;;;1.48;1.00;;;25.50;84.00;;;25.97;93.07;100552.91;5052250;28;20049;-78
2022/08/01 08:41:53;;;;;;;1.52;0.90;;;25.60;83.80;;;26.09;91.47;100546.44;5031688;28;20045;-77
2022/08/01 08:44:20;;;;;;;1.55;1.02;;;25.70;83.40;;;26.21;89.34;100543.66;5012368;28;20126;-78
2022/08/01 08:46:51;;;;;;;2.78;1.60;;;25.80;82.80;;;26.22;83.88;100542.69;5024955;28;20067;-78
2022/08/01 08:49:26;;;;;;;1.33;0.93;;;25.90;81.60;;;26.24;84.89;100544.25;5012445;28;20049;-78
2022/08/01 08:52:03;;;;;;;1.45;1.13;;;25.90;81.60;;;26.43;83.57;100538.09;5023296;28;20637;-77
2022/08/01 08:54:32;;;;;;;1.83;1.23;;;26.00;81.40;;;26.40;80.06;100541.06;5046680;28;20073;-77
2022/08/01 08:57:01;;;;;;;1.02;0.85;;;26.10;80.50;;;26.49;78.75;100544.78;5028279;28;20045;-77
2022/08/01 08:59:29;;;;;;;3.25;1.10;;;26.10;80.10;;;26.45;75.72;100538.81;5031891;28;20112;-77
2022/08/01 09:01:57;;;;;;;1.35;1.00;;;26.20;79.50;;;26.42;78.99;100536.41;5028725;28;20076;-77
2022/08/01 09:04:26;;;;;;;1.10;1.00;;;26.10;79.80;;;26.59;82.21;100545.66;5011635;28;20421;-78
2022/08/01 09:06:54;;;;;;;1.30;0.90;;;26.10;80.70;;;26.69;79.64;100550.25;5011865;28;20041;-78
2022/08/01 09:09:22;;;;;;;3.75;1.00;;;26.30;80.20;;;26.82;78.38;100545.47;5028151;28;20049;-77
2022/08/01 09:11:49;;;;;;;1.40;1.30;;;26.40;80.10;;;26.94;79.23;100545.38;5012091;28;20498;-77
2022/08/01 09:14:34;;;;;;;1.27;1.10;;;26.40;80.30;;;26.95;74.17;100544.38;5013217;28;20103;-77
2022/08/01 09:17:12;;;;;;;1.33;1.10;;;26.60;79.00;;;27.08;72.22;100553.03;5013294;28;20503;-77
2022/08/01 09:19:52;;;;;;;2.20;0.70;;;26.60;78.50;;;27.08;73.51;100552.19;5012404;28;20044;-78
2022/08/01 09:22:25;;;;;;;2.35;1.10;;;26.70;78.70;;;27.03;73.95;100555.31;5028641;28;20702;-77
2022/08/01 09:25:08;;;;;;;2.30;1.00;;;26.70;78.50;;;27.05;75.08;100558.72;5031791;28;20044;-78
2022/08/01 09:27:38;;;;;;;1.85;0.98;;;26.70;78.70;;;26.84;76.15;100561.50;5032204;28;20049;-77
2022/08/01 09:30:17;;;;;;;1.70;1.20;;;26.60;78.40;;;26.61;77.99;100554.47;5032719;28;20041;-78
2022/08/01 09:33:05;;;;;;;1.15;1.05;;;26.60;78.50;;;26.76;78.10;100559.47;5048477;28;20148;-77
2022/08/01 09:35:56;;;;;;;1.85;1.20;;;26.50;78.80;;;26.80;77.26;100554.66;5048772;28;20083;-78
2022/08/01 09:38:28;;;;;;;1.33;0.93;;;26.50;78.70;;;26.69;79.06;100564.56;5048598;28;20045;-78
2022/08/01 09:40:59;;;;;;;2.35;1.08;;;26.50;78.90;;;26.71;79.56;100572.53;5032515;28;20045;-78
2022/08/01 09:43:30;;;;;;;4.10;1.45;;;26.40;78.90;;;26.60;80.03;100566.25;5048418;28;20516;-78
2022/08/01 09:46:04;;;;;;;3.17;1.20;;;26.30;78.90;;;26.55;79.20;100563.13;5048296;28;20098;-78
2022/08/01 09:48:32;;;;;;;1.20;1.00;;;26.40;78.70;;;26.76;78.05;100567.59;5032233;28;20087;-78
2022/08/01 09:51:00;;;;;;;1.88;1.20;;;26.40;78.70;;;26.85;79.13;100569.47;5047464;28;20118;-78
2022/08/01 09:53:48;;;;;;;1.77;1.17;;;26.40;79.10;;;26.97;76.20;100566.69;5027564;28;20056;-80
2022/08/01 09:56:21;;;;;;;2.13;1.40;;;26.50;78.50;;;27.11;78.99;100565.41;5011771;28;20107;-80
2022/08/01 09:58:59;;;;;;;;;;;26.60;79.20;;;26.98;76.60;100571.94;5028219;28;20047;-79
2022/08/01 10:01:50;;;;;;;2.47;1.10;;;26.70;78.40;;;26.94;76.26;100569.66;5043704;28;19921;-79
2022/08/01 10:04:20;;;;;;;1.60;1.40;;;26.70;78.00;;;27.09;76.71;100570.97;5028037;28;20144;-79
2022/08/01 10:06:54;;;;;;;2.20;1.23;;;26.70;78.30;;;27.21;75.04;100568.13;5043966;28;20128;-80
2022/08/01 10:09:33;;;;;;;1.73;1.10;;;26.80;78.30;;;27.24;77.77;100557.91;5026598;28;20411;-80
2022/08/01 10:12:08;;;;;;;1.90;1.45;;;26.80;78.60;;;27.21;75.50;100565.41;5023640;28;20497;-81
2022/08/01 10:14:50;;;;;;;3.00;1.80;;;27.00;78.10;;;27.26;76.54;100558.59;5032412;28;20068;-79
2022/08/01 10:17:19;;;;;;;3.38;1.67;;;26.90;78.50;;;27.17;75.74;100563.00;5048521;28;20125;-81
2022/08/01 10:19:50;;;;;;;3.80;1.25;;;27.00;78.00;;;27.04;76.05;100562.41;5031788;28;20041;-80
2022/08/01 10:22:22;;;;;;;2.17;1.15;;;26.90;77.60;;;26.96;76.86;100554.19;5031103;28;20041;-79
2022/08/01 10:24:55;;;;;;;1.73;1.35;;;26.80;77.70;;;27.16;80.60;100557.72;5046662;28;20762;-79
2022/08/01 10:27:24;;;;;;;1.48;1.00;;;26.80;78.80;;;27.20;76.81;100563.72;5046081;28;20093;-81